Time;durP1;ratioP1;P1;durP2;ratioP2;P2;SDS_P1;SDS_P2;PMS_P1;PMS_P2;Temp;Humidity;BMP_temperature;BMP_pressure;BME280_temperature;BME280_humidity;BME280_pressure;Samples;Min_cycle;Max_cycle;Signal;HPM_P1;HPM_P2
2020/12/06 00:01:06;;;;;;;6.60;6.10;;;2.30;99.90;;;;;;5052532;28;20409;-60
2020/12/06 00:03:35;;;;;;;4.43;4.20;;;2.20;99.90;;;;;;5052206;28;20257;-61
2020/12/06 00:06:00;;;;;;;5.57;5.17;;;2.30;99.90;;;;;;5052395;28;20494;-58
2020/12/06 00:08:26;;;;;;;4.47;4.17;;;2.30;99.90;;;;;;5051964;28;20430;-59
2020/12/06 00:10:51;;;;;;;5.67;5.20;;;2.40;99.90;;;;;;5052424;28;20156;-60
2020/12/06 00:13:17;;;;;;;5.10;4.80;;;2.40;99.90;;;;;;5052084;28;20241;-60
2020/12/06 00:15:42;;;;;;;5.30;5.00;;;2.40;99.90;;;;;;5052262;28;20221;-60
2020/12/06 00:18:08;;;;;;;4.87;4.57;;;2.40;99.90;;;;;;5051684;28;20164;-57
2020/12/06 00:20:34;;;;;;;5.70;5.27;;;2.40;99.90;;;;;;5052257;28;20243;-52
2020/12/06 00:23:00;;;;;;;8.60;8.00;;;2.40;99.90;;;;;;5051820;28;20647;-57
2020/12/06 00:25:26;;;;;;;6.30;5.93;;;2.40;99.90;;;;;;5051625;28;20532;-57
2020/12/06 00:27:51;;;;;;;4.60;4.30;;;2.30;99.90;;;;;;5051629;28;20406;-55
2020/12/06 00:30:17;;;;;;;5.77;5.10;;;2.30;99.90;;;;;;5065194;28;20408;-58
2020/12/06 00:32:43;;;;;;;4.90;4.70;;;2.20;99.90;;;;;;5071862;28;20186;-56
2020/12/06 00:35:09;;;;;;;4.60;4.37;;;2.30;99.90;;;;;;5071712;28;20232;-58
2020/12/06 00:37:40;;;;;;;4.90;4.60;;;2.30;99.90;;;;;;5071712;28;20155;-55
2020/12/06 00:40:09;;;;;;;4.87;4.57;;;2.30;99.90;;;;;;5071680;28;20400;-59
2020/12/06 00:42:36;;;;;;;4.07;3.87;;;2.30;99.90;;;;;;5071830;28;20841;-57
2020/12/06 00:45:04;;;;;;;5.20;4.90;;;2.30;99.90;;;;;;5071590;28;20444;-58
2020/12/06 00:47:30;;;;;;;5.13;4.83;;;2.30;99.90;;;;;;5071478;28;20429;-58
2020/12/06 00:49:55;;;;;;;4.77;4.53;;;2.30;99.90;;;;;;5071624;28;20444;-56
2020/12/06 00:52:21;;;;;;;4.77;4.47;;;2.20;99.90;;;;;;5071798;28;20187;-56
2020/12/06 00:54:47;;;;;;;5.23;4.90;;;2.20;99.90;;;;;;5071631;28;20173;-57
2020/12/06 00:57:12;;;;;;;4.90;4.60;;;2.20;99.90;;;;;;5071410;28;20246;-58
2020/12/06 00:59:38;;;;;;;5.53;5.03;;;2.20;99.90;;;;;;5071672;28;20191;-57
2020/12/06 01:02:05;;;;;;;5.60;5.20;;;2.20;99.90;;;;;;5071303;28;20723;-55
2020/12/06 01:04:31;;;;;;;4.93;4.63;;;2.20;99.90;;;;;;5071537;28;20248;-59
2020/12/06 01:07:00;;;;;;;3.67;3.50;;;2.20;99.90;;;;;;5071260;28;20815;-52
2020/12/06 01:09:26;;;;;;;4.70;4.43;;;2.30;99.90;;;;;;5071644;28;20408;-56
2020/12/06 01:11:51;;;;;;;4.70;4.30;;;2.30;99.90;;;;;;5071452;28;20402;-57
2020/12/06 01:14:17;;;;;;;5.10;4.70;;;2.20;99.90;;;;;;5071529;28;20212;-56
2020/12/06 01:16:43;;;;;;;4.63;4.33;;;2.20;99.90;;;;;;5071070;28;20202;-55
2020/12/06 01:19:09;;;;;;;6.20;5.67;;;2.30;99.90;;;;;;5071621;28;20401;-55
2020/12/06 01:21:34;;;;;;;6.10;5.60;;;2.20;99.90;;;;;;5071386;28;20174;-59
2020/12/06 01:24:00;;;;;;;10.70;9.27;;;2.20;99.90;;;;;;5071345;28;20254;-57
2020/12/06 01:26:25;;;;;;;12.47;8.60;;;2.30;99.90;;;;;;5071251;28;20167;-57
2020/12/06 01:28:51;;;;;;;8.07;7.23;;;2.30;99.90;;;;;;5071213;28;20163;-55
2020/12/06 01:31:16;;;;;;;6.90;6.20;;;2.30;99.90;;;;;;5071067;28;20175;-58
2020/12/06 01:33:42;;;;;;;4.77;4.50;;;2.20;99.90;;;;;;5071267;28;20184;-58
2020/12/06 01:36:08;;;;;;;4.93;4.63;;;2.20;99.90;;;;;;5072613;28;20175;-54
2020/12/06 01:38:34;;;;;;;4.97;4.67;;;2.20;99.90;;;;;;5074785;28;20174;-58
2020/12/06 01:40:59;;;;;;;4.57;4.27;;;2.10;99.90;;;;;;5075071;28;20174;-55
2020/12/06 01:43:25;;;;;;;4.43;4.23;;;2.00;99.90;;;;;;5074814;28;20506;-53
2020/12/06 01:45:50;;;;;;;5.90;4.83;;;2.00;99.90;;;;;;5074977;28;20199;-57
2020/12/06 01:48:16;;;;;;;4.77;4.47;;;2.00;99.90;;;;;;5074566;28;20172;-53
2020/12/06 01:50:42;;;;;;;6.97;6.37;;;1.90;99.90;;;;;;5075009;28;20368;-58
2020/12/06 01:53:08;;;;;;;8.83;8.07;;;1.90;99.90;;;;;;5073325;28;20477;-56
2020/12/06 01:55:34;;;;;;;11.30;10.23;;;1.90;99.90;;;;;;5074777;28;20417;-56
2020/12/06 01:58:04;;;;;;;7.03;6.40;;;2.00;99.90;;;;;;5074318;28;20183;-58
2020/12/06 02:00:30;;;;;;;7.67;7.00;;;2.00;99.90;;;;;;5074700;28;20412;-60
2020/12/06 02:02:56;;;;;;;6.03;5.53;;;2.00;99.90;;;;;;5074442;28;20422;-56
2020/12/06 02:05:22;;;;;;;8.03;7.23;;;2.00;99.90;;;;;;5074689;28;20405;-59
2020/12/06 02:07:48;;;;;;;6.10;5.67;;;2.00;99.90;;;;;;5074223;28;20916;-60
2020/12/06 02:10:14;;;;;;;5.13;4.80;;;2.00;99.90;;;;;;5074710;28;20203;-57
2020/12/06 02:12:45;;;;;;;6.60;6.20;;;1.90;99.90;;;;;;5074467;28;20420;-57
2020/12/06 02:15:11;;;;;;;6.03;5.53;;;1.90;99.90;;;;;;5074369;28;20408;-58
2020/12/06 02:17:37;;;;;;;5.13;4.83;;;1.90;99.90;;;;;;5074254;28;20398;-54
2020/12/06 02:20:03;;;;;;;6.30;5.77;;;1.90;99.90;;;;;;5074273;28;20631;-56
2020/12/06 02:22:29;;;;;;;5.47;5.10;;;1.90;99.90;;;;;;5074397;28;20186;-55
2020/12/06 02:24:54;;;;;;;5.70;5.20;;;1.80;99.90;;;;;;5074042;28;20452;-58
2020/12/06 02:27:20;;;;;;;5.60;5.20;;;1.80;99.90;;;;;;5074061;28;20163;-58
2020/12/06 02:29:45;;;;;;;5.00;4.70;;;1.80;99.90;;;;;;5074055;28;20171;-58
2020/12/06 02:32:11;;;;;;;5.10;4.80;;;1.80;99.90;;;;;;5074237;28;20288;-57
2020/12/06 02:34:37;;;;;;;5.57;4.20;;;1.80;99.90;;;;;;5073965;28;20171;-56
2020/12/06 02:37:02;;;;;;;4.80;4.50;;;1.80;99.90;;;;;;5073901;28;20163;-59
2020/12/06 02:39:28;;;;;;;4.60;4.30;;;1.70;99.90;;;;;;5073962;28;20769;-60
2020/12/06 02:41:53;;;;;;;4.37;4.07;;;1.70;99.90;;;;;;5073977;28;20563;-58
2020/12/06 02:44:19;;;;;;;4.40;4.20;;;1.60;99.90;;;;;;5073848;28;20252;-55
2020/12/06 02:46:44;;;;;;;4.33;4.13;;;1.50;99.90;;;;;;5073176;28;20168;-58
2020/12/06 02:49:10;;;;;;;4.90;4.50;;;1.50;99.90;;;;;;5073983;28;20167;-58
2020/12/06 02:51:36;;;;;;;5.37;4.97;;;1.50;99.90;;;;;;5073733;28;20635;-60
2020/12/06 02:54:03;;;;;;;5.50;5.20;;;1.50;99.90;;;;;;5073752;28;20188;-57
2020/12/06 02:56:29;;;;;;;5.40;5.10;;;1.50;99.90;;;;;;5073495;28;20787;-56
2020/12/06 02:58:54;;;;;;;6.57;6.10;;;1.50;99.90;;;;;;5073435;28;20421;-57
2020/12/06 03:01:20;;;;;;;6.60;6.10;;;1.50;99.90;;;;;;5073548;28;20164;-54
2020/12/06 03:03:46;;;;;;;5.90;5.50;;;1.50;99.90;;;;;;5073481;28;20203;-57
2020/12/06 03:06:12;;;;;;;6.30;5.73;;;1.50;99.90;;;;;;5073440;28;20639;-55
2020/12/06 03:08:39;;;;;;;6.00;5.60;;;1.40;99.90;;;;;;5073277;28;20401;-58
2020/12/06 03:11:06;;;;;;;5.77;5.27;;;1.50;99.90;;;;;;5073399;28;20397;-60
2020/12/06 03:13:32;;;;;;;5.87;5.57;;;1.40;99.90;;;;;;5073189;28;20430;-58
2020/12/06 03:15:57;;;;;;;5.73;5.43;;;1.40;99.90;;;;;;5073416;28;21035;-59
2020/12/06 03:18:23;;;;;;;6.80;6.20;;;1.40;99.90;;;;;;5073021;28;20500;-57
2020/12/06 03:20:48;;;;;;;6.70;6.30;;;1.50;99.90;;;;;;5074253;28;20273;-61
2020/12/06 03:23:14;;;;;;;6.60;6.10;;;1.40;99.90;;;;;;5074087;28;20199;-60
2020/12/06 03:25:39;;;;;;;6.50;6.00;;;1.50;99.90;;;;;;5073819;28;20161;-61
2020/12/06 03:28:05;;;;;;;6.07;5.67;;;1.50;99.90;;;;;;5073504;28;20269;-61
2020/12/06 03:30:30;;;;;;;6.33;5.80;;;1.50;99.90;;;;;;5073769;28;20178;-61
2020/12/06 03:32:56;;;;;;;7.53;7.03;;;1.50;99.90;;;;;;5073311;28;20178;-60
2020/12/06 03:35:22;;;;;;;6.20;5.90;;;1.50;99.90;;;;;;5073465;28;20242;-61
2020/12/06 03:37:47;;;;;;;6.20;5.80;;;1.50;99.90;;;;;;5072145;28;20751;-61
2020/12/06 03:40:13;;;;;;;6.00;5.50;;;1.50;99.90;;;;;;5073189;28;20160;-61
2020/12/06 03:42:38;;;;;;;7.23;6.63;;;1.50;99.90;;;;;;5073657;28;20190;-61
2020/12/06 03:45:04;;;;;;;6.83;6.33;;;1.50;99.90;;;;;;5073152;28;20694;-61
2020/12/06 03:47:30;;;;;;;6.53;6.03;;;1.60;99.90;;;;;;5073040;28;20167;-60
2020/12/06 03:49:55;;;;;;;4.30;4.10;;;1.50;99.90;;;;;;5073223;28;20425;-61
2020/12/06 03:52:21;;;;;;;5.13;4.73;;;1.50;99.90;;;;;;5073419;28;20226;-60
2020/12/06 03:54:46;;;;;;;5.10;4.80;;;1.50;99.90;;;;;;5073048;28;20170;-60
2020/12/06 03:57:12;;;;;;;5.80;5.50;;;1.50;99.90;;;;;;5073006;28;20227;-61
2020/12/06 03:59:37;;;;;;;5.80;5.40;;;1.50;99.90;;;;;;5072387;28;20270;-61
2020/12/06 04:02:03;;;;;;;6.77;6.37;;;1.50;99.90;;;;;;5073240;28;20175;-61
2020/12/06 04:04:29;;;;;;;5.97;5.47;;;1.50;99.90;;;;;;5072904;28;20198;-60
2020/12/06 04:06:54;;;;;;;4.80;4.50;;;1.50;99.90;;;;;;5073147;28;20640;-61
2020/12/06 04:09:20;;;;;;;5.43;4.93;;;1.50;99.90;;;;;;5073309;28;20168;-61
2020/12/06 04:11:45;;;;;;;6.50;6.10;;;1.50;99.90;;;;;;5073007;28;20167;-61
2020/12/06 04:14:11;;;;;;;5.10;4.83;;;1.50;99.90;;;;;;5072859;28;20223;-60
2020/12/06 04:16:36;;;;;;;5.83;5.43;;;1.40;99.90;;;;;;5072403;28;20217;-60
2020/12/06 04:19:02;;;;;;;4.97;4.67;;;1.40;99.90;;;;;;5072895;28;20171;-60
2020/12/06 04:21:27;;;;;;;5.17;4.87;;;1.40;99.90;;;;;;5072523;28;20540;-60
2020/12/06 04:23:53;;;;;;;5.20;4.80;;;1.40;99.90;;;;;;5072585;28;20234;-60
2020/12/06 04:26:18;;;;;;;4.83;4.63;;;1.40;99.90;;;;;;5072540;28;20736;-61
2020/12/06 04:28:44;;;;;;;4.43;4.13;;;1.40;99.90;;;;;;5072273;28;20722;-61
2020/12/06 04:31:09;;;;;;;5.00;4.70;;;1.40;99.90;;;;;;5072521;28;20163;-60
2020/12/06 04:33:35;;;;;;;4.67;4.40;;;1.40;99.90;;;;;;5072895;28;20722;-61
2020/12/06 04:36:01;;;;;;;5.13;4.73;;;1.40;99.90;;;;;;5072745;28;20162;-61
2020/12/06 04:38:26;;;;;;;7.03;5.00;;;1.40;99.90;;;;;;5072098;28;20159;-61
2020/12/06 04:40:52;;;;;;;5.20;4.90;;;1.40;99.90;;;;;;5072947;28;20220;-61
2020/12/06 04:43:18;;;;;;;5.90;5.30;;;1.40;99.90;;;;;;5072549;28;20195;-61
2020/12/06 04:45:45;;;;;;;5.13;4.83;;;1.40;99.90;;;;;;5072647;28;20169;-61
2020/12/06 04:48:26;;;;;;;5.63;5.23;;;1.50;99.90;;;;;;5072309;28;20483;-61
2020/12/06 04:50:55;;;;;;;4.80;4.43;;;1.40;99.90;;;;;;5072681;28;20405;-61
2020/12/06 04:53:27;;;;;;;5.53;5.17;;;1.40;99.90;;;;;;5072162;28;20437;-61
2020/12/06 04:55:54;;;;;;;5.20;4.90;;;1.40;99.90;;;;;;5072328;28;20463;-61
2020/12/06 04:58:25;;;;;;;5.27;5.03;;;1.40;99.90;;;;;;5071814;28;20808;-60
2020/12/06 05:00:51;;;;;;;4.00;3.80;;;1.40;99.90;;;;;;5072431;28;20846;-61
2020/12/06 05:03:22;;;;;;;5.37;5.07;;;1.30;99.90;;;;;;5072126;28;20965;-61
2020/12/06 05:05:49;;;;;;;4.97;4.57;;;1.30;99.90;;;;;;5072127;28;20448;-61
2020/12/06 05:08:14;;;;;;;4.10;3.90;;;1.30;99.90;;;;;;5071514;28;20501;-61
2020/12/06 05:10:48;;;;;;;5.47;5.17;;;1.20;99.90;;;;;;5074190;28;20447;-61
2020/12/06 05:13:15;;;;;;;4.63;4.33;;;1.20;99.90;;;;;;5075915;28;20221;-61
2020/12/06 05:15:41;;;;;;;4.83;4.53;;;1.20;99.90;;;;;;5075744;28;20401;-61
2020/12/06 05:18:07;;;;;;;5.03;4.73;;;1.20;99.90;;;;;;5075816;28;20405;-61
2020/12/06 05:20:33;;;;;;;6.03;5.60;;;1.20;99.90;;;;;;5075812;28;20986;-61
2020/12/06 05:22:59;;;;;;;5.70;5.30;;;1.20;99.90;;;;;;5075840;28;20198;-61
2020/12/06 05:25:25;;;;;;;5.17;4.73;;;1.20;99.90;;;;;;5075967;28;20401;-60
2020/12/06 05:27:51;;;;;;;5.27;4.70;;;1.20;99.90;;;;;;5075919;28;20511;-60
2020/12/06 05:30:17;;;;;;;6.20;5.70;;;1.20;99.90;;;;;;5076213;28;20167;-61
2020/12/06 05:32:43;;;;;;;6.23;5.70;;;1.30;99.90;;;;;;5076068;28;20466;-60
2020/12/06 05:35:10;;;;;;;6.87;6.27;;;1.50;99.90;;;;;;5076322;28;20519;-61
2020/12/06 05:37:37;;;;;;;7.13;6.40;;;1.50;99.90;;;;;;5075954;28;20940;-61
2020/12/06 05:40:10;;;;;;;6.70;6.13;;;1.70;99.90;;;;;;5075923;28;20408;-61
2020/12/06 05:42:39;;;;;;;6.63;6.13;;;1.90;99.90;;;;;;5075701;28;20429;-61
2020/12/06 05:45:06;;;;;;;6.23;5.73;;;2.10;99.90;;;;;;5075374;28;20460;-61
2020/12/06 05:47:32;;;;;;;6.93;6.37;;;2.30;99.90;;;;;;5075036;28;20492;-61
2020/12/06 05:49:58;;;;;;;6.67;6.03;;;2.30;99.90;;;;;;5075628;28;20489;-60
2020/12/06 05:52:27;;;;;;;7.87;7.07;;;2.40;99.90;;;;;;5074942;28;20612;-61
2020/12/06 05:54:55;;;;;;;6.07;5.57;;;2.60;99.90;;;;;;5075077;28;20416;-61
2020/12/06 05:57:25;;;;;;;7.33;6.73;;;2.50;99.90;;;;;;5075123;28;20455;-61
2020/12/06 05:59:55;;;;;;;6.87;6.40;;;2.50;99.90;;;;;;5075160;28;20425;-61
2020/12/06 06:02:22;;;;;;;6.05;5.55;;;2.50;99.90;;;;;;5075234;28;20416;-60
2020/12/06 06:04:49;;;;;;;6.20;5.70;;;2.60;99.90;;;;;;5075547;28;20195;-61
2020/12/06 06:07:24;;;;;;;7.00;6.30;;;2.60;99.90;;;;;;5075840;28;20536;-61
2020/12/06 06:09:59;;;;;;;5.13;4.50;;;2.60;99.90;;;;;;5076332;28;20943;-61
2020/12/06 06:12:24;;;;;;;5.10;4.80;;;2.60;99.90;;;;;;5076031;28;20445;-61
2020/12/06 06:14:51;;;;;;;5.27;4.80;;;2.60;99.90;;;;;;5076357;28;20443;-61
2020/12/06 06:17:18;;;;;;;6.20;5.70;;;2.60;99.90;;;;;;5076563;28;20163;-61
2020/12/06 06:19:47;;;;;;;5.97;5.43;;;2.70;99.90;;;;;;5077031;28;20906;-61
2020/12/06 06:22:15;;;;;;;6.27;5.60;;;2.60;99.90;;;;;;5076568;28;20397;-61
2020/12/06 06:24:42;;;;;;;7.17;6.50;;;2.50;99.90;;;;;;5077933;28;20518;-61
2020/12/06 06:27:08;;;;;;;6.03;5.63;;;2.60;99.90;;;;;;5077393;28;20406;-61
2020/12/06 06:29:36;;;;;;;6.00;5.50;;;2.60;99.90;;;;;;5077850;28;20902;-61
2020/12/06 06:32:03;;;;;;;5.40;5.00;;;2.60;99.90;;;;;;5078034;28;21117;-61
2020/12/06 06:34:31;;;;;;;5.17;4.77;;;2.60;99.90;;;;;;5078077;28;20401;-61
2020/12/06 06:36:57;;;;;;;4.30;4.00;;;2.60;99.90;;;;;;5078325;28;20473;-61
2020/12/06 06:39:24;;;;;;;6.00;5.60;;;2.70;99.90;;;;;;5078394;28;20438;-61
2020/12/06 06:42:08;;;;;;;5.93;5.43;;;2.70;99.90;;;;;;5078430;28;20405;-61
2020/12/06 06:44:37;;;;;;;5.40;5.00;;;2.80;99.90;;;;;;5077667;28;20478;-61
2020/12/06 06:47:09;;;;;;;5.77;5.27;;;2.70;99.90;;;;;;5079220;28;20393;-61
2020/12/06 06:49:57;;;;;;;5.30;4.87;;;2.70;99.90;;;;;;5077210;28;20398;-61
2020/12/06 06:52:25;;;;;;;6.07;5.67;;;2.70;99.90;;;;;;5075307;28;20474;-61
2020/12/06 06:54:56;;;;;;;6.03;5.53;;;2.70;99.90;;;;;;5075205;28;20934;-60
2020/12/06 06:57:22;;;;;;;5.17;4.77;;;2.60;99.90;;;;;;5074635;28;20417;-61
2020/12/06 06:59:51;;;;;;;5.17;4.77;;;2.60;99.90;;;;;;5075364;28;20425;-61
2020/12/06 07:02:34;;;;;;;5.87;5.47;;;2.70;99.90;;;;;;5074681;28;20906;-60
2020/12/06 07:05:03;;;;;;;5.93;5.33;;;2.70;99.90;;;;;;5074900;28;20591;-61
2020/12/06 07:07:38;;;;;;;4.57;4.17;;;2.70;99.90;;;;;;5074648;28;20428;-61
2020/12/06 07:10:05;;;;;;;5.00;4.70;;;2.80;99.90;;;;;;5074438;28;20901;-61
2020/12/06 07:12:37;;;;;;;4.30;3.90;;;2.80;99.90;;;;;;5074188;28;20898;-61
2020/12/06 07:15:06;;;;;;;5.60;5.07;;;2.80;99.90;;;;;;5074807;28;20921;-61
2020/12/06 07:17:32;;;;;;;4.70;4.40;;;2.80;99.90;;;;;;5074343;28;20902;-60
2020/12/06 07:19:58;;;;;;;5.63;5.23;;;2.80;99.90;;;;;;5074827;28;20420;-61
2020/12/06 07:22:24;;;;;;;5.60;5.10;;;2.80;99.90;;;;;;5074231;28;20219;-60
2020/12/06 07:24:50;;;;;;;5.87;5.37;;;2.80;99.90;;;;;;5074505;28;20453;-59
2020/12/06 07:27:16;;;;;;;4.80;4.50;;;2.80;99.90;;;;;;5074014;28;20488;-61
2020/12/06 07:29:42;;;;;;;5.03;4.53;;;2.90;99.90;;;;;;5073422;28;20410;-61
2020/12/06 07:32:09;;;;;;;6.00;5.50;;;3.00;99.90;;;;;;5073132;28;20467;-61
2020/12/06 07:34:34;;;;;;;5.10;4.70;;;3.00;99.90;;;;;;5071817;28;20672;-61
2020/12/06 07:37:00;;;;;;;5.43;5.03;;;3.00;99.90;;;;;;5072658;28;20444;-60
2020/12/06 07:39:26;;;;;;;5.30;4.90;;;3.00;99.90;;;;;;5072787;28;20555;-61
2020/12/06 07:41:51;;;;;;;5.60;5.20;;;3.00;99.90;;;;;;5072921;28;20409;-60
2020/12/06 07:44:17;;;;;;;6.57;5.97;;;3.10;99.90;;;;;;5072443;28;20203;-61
2020/12/06 07:46:43;;;;;;;5.10;4.70;;;3.10;99.90;;;;;;5072580;28;20173;-61
2020/12/06 07:49:09;;;;;;;5.20;4.50;;;3.10;99.90;;;;;;5072608;28;20592;-59
2020/12/06 07:51:35;;;;;;;5.27;4.50;;;3.20;99.90;;;;;;5072666;28;20409;-61
2020/12/06 07:54:02;;;;;;;5.43;4.93;;;3.10;99.90;;;;;;5072357;28;20432;-60
2020/12/06 07:56:31;;;;;;;6.27;5.67;;;3.10;99.90;;;;;;5072624;28;20630;-60
2020/12/06 07:59:08;;;;;;;7.07;6.33;;;3.10;99.90;;;;;;5072492;28;20460;-61
2020/12/06 08:01:34;;;;;;;13.90;10.60;;;3.20;99.90;;;;;;5072544;28;20401;-60
2020/12/06 08:04:01;;;;;;;11.40;7.97;;;3.20;99.90;;;;;;5072295;28;20457;-61
2020/12/06 08:06:28;;;;;;;7.43;6.60;;;3.20;99.90;;;;;;5072198;28;20905;-61
2020/12/06 08:08:58;;;;;;;7.43;6.83;;;3.20;99.90;;;;;;5072262;28;20488;-61
2020/12/06 08:11:31;;;;;;;6.27;5.70;;;3.20;99.90;;;;;;5072232;28;20389;-59
2020/12/06 08:13:58;;;;;;;5.13;4.73;;;3.30;99.90;;;;;;5072237;28;20455;-60
2020/12/06 08:16:23;;;;;;;5.83;5.43;;;3.30;99.90;;;;;;5072184;28;20438;-61
2020/12/06 08:18:59;;;;;;;5.67;5.17;;;3.30;99.90;;;;;;5072033;28;20934;-61
2020/12/06 08:21:36;;;;;;;6.27;5.13;;;3.30;99.90;;;;;;5072012;28;20573;-60
2020/12/06 08:24:01;;;;;;;5.80;4.40;;;3.30;99.90;;;;;;5071995;28;20459;-61
2020/12/06 08:26:35;;;;;;;8.23;6.87;;;3.20;99.90;;;;;;5071884;28;20397;-60
2020/12/06 08:29:01;;;;;;;10.97;9.87;;;3.30;99.90;;;;;;5072163;28;20265;-61
2020/12/06 08:31:26;;;;;;;8.27;7.40;;;3.20;99.90;;;;;;5072066;28;21083;-60
2020/12/06 08:33:52;;;;;;;7.17;6.47;;;3.30;99.90;;;;;;5071749;28;20543;-60
2020/12/06 08:36:24;;;;;;;7.50;6.80;;;3.30;99.90;;;;;;5071852;28;20686;-61
2020/12/06 08:38:50;;;;;;;4.97;4.50;;;3.30;99.90;;;;;;5071787;28;20179;-61
2020/12/06 08:41:23;;;;;;;6.00;5.40;;;3.30;99.90;;;;;;5072138;28;20428;-61
2020/12/06 08:43:50;;;;;;;11.93;10.57;;;3.30;99.90;;;;;;5071660;28;20630;-61
2020/12/06 08:46:21;;;;;;;17.67;14.30;;;3.30;99.90;;;;;;5071691;28;20462;-60
2020/12/06 08:48:49;;;;;;;9.80;8.80;;;3.30;99.90;;;;;;5071473;28;20471;-61
2020/12/06 08:51:25;;;;;;;12.27;10.50;;;3.30;99.90;;;;;;5071866;28;20393;-60
2020/12/06 08:53:51;;;;;;;10.60;9.50;;;3.40;99.90;;;;;;5071573;28;20421;-61
2020/12/06 08:56:24;;;;;;;10.03;9.03;;;3.40;99.90;;;;;;5071829;28;20417;-61
2020/12/06 08:58:50;;;;;;;10.00;9.10;;;3.40;99.90;;;;;;5071332;28;20191;-61
2020/12/06 09:01:15;;;;;;;9.93;8.80;;;3.50;99.90;;;;;;5071660;28;20409;-60
2020/12/06 09:03:41;;;;;;;11.47;10.27;;;3.50;99.90;;;;;;5071537;28;20671;-60
2020/12/06 09:06:14;;;;;;;14.17;11.70;;;3.50;99.90;;;;;;5071563;28;20202;-61
2020/12/06 09:08:40;;;;;;;12.60;11.33;;;3.60;99.90;;;;;;5071551;28;20171;-61
2020/12/06 09:11:05;;;;;;;15.00;12.70;;;3.60;99.90;;;;;;5071562;28;20397;-61
2020/12/06 09:13:31;;;;;;;13.53;12.17;;;3.60;99.90;;;;;;5071490;28;20240;-61
2020/12/06 09:15:57;;;;;;;12.83;11.63;;;3.70;99.90;;;;;;5071437;28;20220;-61
2020/12/06 09:18:22;;;;;;;12.83;11.47;;;3.70;99.90;;;;;;5071346;28;20207;-61
2020/12/06 09:20:48;;;;;;;15.60;14.20;;;3.70;99.90;;;;;;5071536;28;20427;-60
2020/12/06 09:23:13;;;;;;;13.07;11.90;;;3.80;99.90;;;;;;5072127;28;20270;-58
2020/12/06 09:25:39;;;;;;;10.83;9.73;;;3.80;99.90;;;;;;5071339;28;20253;-60
2020/12/06 09:28:04;;;;;;;11.83;10.73;;;3.80;99.90;;;;;;5071201;28;20517;-58
2020/12/06 09:30:30;;;;;;;11.97;10.70;;;3.90;99.90;;;;;;5071451;28;20640;-56
2020/12/06 09:32:55;;;;;;;12.33;11.30;;;3.90;99.90;;;;;;5071238;28;20655;-56
2020/12/06 09:35:21;;;;;;;10.43;9.50;;;3.90;99.90;;;;;;5071392;28;20179;-59
2020/12/06 09:37:46;;;;;;;9.30;8.60;;;4.00;99.90;;;;;;5070969;28;20191;-57
2020/12/06 09:40:12;;;;;;;11.23;10.23;;;4.10;99.90;;;;;;5071425;28;20250;-58
2020/12/06 09:42:37;;;;;;;8.87;8.17;;;4.10;99.90;;;;;;5071115;28;20252;-59
2020/12/06 09:45:03;;;;;;;9.07;8.27;;;4.20;99.90;;;;;;5071126;28;20252;-55
2020/12/06 09:47:28;;;;;;;10.00;9.10;;;4.20;99.90;;;;;;5070944;28;20167;-57
2020/12/06 09:49:54;;;;;;;9.40;8.50;;;4.20;99.90;;;;;;5071184;28;20206;-58
2020/12/06 09:52:20;;;;;;;8.37;7.57;;;4.30;99.90;;;;;;5071364;28;20190;-59
2020/12/06 09:54:45;;;;;;;7.30;6.80;;;4.40;99.90;;;;;;5071101;28;20167;-57
2020/12/06 09:57:11;;;;;;;10.07;9.13;;;4.40;99.90;;;;;;5072155;28;20195;-53
2020/12/06 09:59:36;;;;;;;8.87;8.17;;;4.40;99.90;;;;;;5074676;28;20187;-59
2020/12/06 10:02:02;;;;;;;8.37;7.83;;;4.50;99.90;;;;;;5074782;28;20171;-58
2020/12/06 10:04:27;;;;;;;8.60;7.93;;;4.50;99.90;;;;;;5074469;28;20278;-53
2020/12/06 10:06:53;;;;;;;8.47;7.13;;;4.50;99.90;;;;;;5074464;28;20250;-57
2020/12/06 10:09:18;;;;;;;6.53;6.10;;;4.60;99.90;;;;;;5074659;28;20159;-58
2020/12/06 10:11:44;;;;;;;7.07;6.47;;;4.60;99.90;;;;;;5074676;28;20171;-59
2020/12/06 10:14:09;;;;;;;6.37;5.80;;;4.60;99.90;;;;;;5074558;28;20221;-59
2020/12/06 10:16:35;;;;;;;7.13;6.47;;;4.60;99.90;;;;;;5074297;28;20171;-53
2020/12/06 10:19:01;;;;;;;6.90;6.20;;;4.60;99.90;;;;;;5074503;28;20168;-58
2020/12/06 10:21:26;;;;;;;7.33;6.70;;;4.60;99.90;;;;;;5074383;28;20173;-60
2020/12/06 10:23:52;;;;;;;20.73;18.37;;;4.70;99.90;;;;;;5074257;28;20207;-58
2020/12/06 10:26:17;;;;;;;27.90;24.10;;;4.70;99.90;;;;;;5074277;28;20242;-60
2020/12/06 10:28:43;;;;;;;23.13;20.67;;;4.70;99.90;;;;;;5074029;28;20171;-55
2020/12/06 10:31:08;;;;;;;23.57;20.70;;;4.80;99.90;;;;;;5074198;28;20170;-58
2020/12/06 10:33:34;;;;;;;15.07;13.13;;;4.80;99.90;;;;;;5074147;28;20195;-57
2020/12/06 10:35:59;;;;;;;10.30;9.40;;;4.90;99.90;;;;;;5074192;28;20193;-60
2020/12/06 10:38:25;;;;;;;20.57;13.80;;;5.00;99.90;;;;;;5073964;28;20643;-60
2020/12/06 10:40:50;;;;;;;8.73;7.80;;;5.00;99.90;;;;;;5074151;28;20555;-58
2020/12/06 10:43:16;;;;;;;6.30;5.70;;;5.00;99.90;;;;;;5073726;28;20278;-58
2020/12/06 10:45:42;;;;;;;5.90;5.40;;;5.10;99.90;;;;;;5074045;28;20190;-57
2020/12/06 10:48:07;;;;;;;5.30;4.83;;;5.20;99.90;;;;;;5073570;28;20174;-58
2020/12/06 10:50:33;;;;;;;4.63;4.37;;;5.20;99.90;;;;;;5074020;28;20170;-57
2020/12/06 10:52:59;;;;;;;5.20;4.80;;;5.20;99.90;;;;;;5073709;28;20183;-58
2020/12/06 10:55:27;;;;;;;4.23;4.03;;;5.30;99.90;;;;;;5073880;28;20546;-59
2020/12/06 10:57:53;;;;;;;4.70;4.40;;;5.30;99.90;;;;;;5073291;28;20603;-58
2020/12/06 11:00:19;;;;;;;3.93;3.73;;;5.40;99.90;;;;;;5073891;28;20764;-57
2020/12/06 11:02:44;;;;;;;4.13;3.93;;;5.40;99.90;;;;;;5073550;28;20425;-58
2020/12/06 11:05:10;;;;;;;4.00;3.80;;;5.40;99.90;;;;;;5073491;28;20206;-56
2020/12/06 11:07:36;;;;;;;4.70;4.10;;;5.40;99.90;;;;;;5073094;28;20174;-60
2020/12/06 11:10:02;;;;;;;6.27;5.07;;;5.50;99.90;;;;;;5073464;28;20398;-61
2020/12/06 11:12:27;;;;;;;6.07;3.93;;;5.50;99.90;;;;;;5073389;28;20179;-59
2020/12/06 11:14:53;;;;;;;49.30;28.57;;;5.50;99.90;;;;;;5073280;28;20404;-58
2020/12/06 11:17:19;;;;;;;28.37;17.10;;;5.60;99.90;;;;;;5073312;28;20174;-58
2020/12/06 11:19:44;;;;;;;49.63;26.87;;;5.60;99.90;;;;;;5073278;28;20403;-58
2020/12/06 11:22:10;;;;;;;9.00;7.70;;;5.70;99.90;;;;;;5073262;28;20198;-61
2020/12/06 11:24:36;;;;;;;8.90;8.20;;;5.70;99.90;;;;;;5073012;28;20201;-58
2020/12/06 11:27:02;;;;;;;8.87;8.20;;;5.70;99.90;;;;;;5072996;28;20159;-58
2020/12/06 11:29:27;;;;;;;6.63;6.30;;;5.80;99.90;;;;;;5073211;28;20402;-58
2020/12/06 11:31:53;;;;;;;6.67;6.07;;;5.80;99.90;;;;;;5072954;28;20397;-57
2020/12/06 11:34:18;;;;;;;7.00;6.50;;;5.90;99.90;;;;;;5072971;28;20620;-60
2020/12/06 11:36:48;;;;;;;7.00;6.50;;;5.90;99.90;;;;;;5072619;28;20170;-61
2020/12/06 11:39:14;;;;;;;5.30;4.90;;;6.00;99.90;;;;;;5073058;28;20692;-60
2020/12/06 11:41:40;;;;;;;5.13;4.83;;;6.10;99.90;;;;;;5072917;28;20406;-53
2020/12/06 11:44:05;;;;;;;6.17;5.57;;;6.10;99.90;;;;;;5072735;28;20199;-60
2020/12/06 11:46:31;;;;;;;5.97;5.47;;;6.10;99.90;;;;;;5072437;28;20167;-61
2020/12/06 11:48:56;;;;;;;5.63;5.13;;;6.20;99.90;;;;;;5072929;28;20257;-60
2020/12/06 11:51:22;;;;;;;5.60;5.10;;;6.20;99.90;;;;;;5072712;28;20163;-55
2020/12/06 11:53:47;;;;;;;5.70;5.20;;;6.30;99.90;;;;;;5072540;28;20195;-60
2020/12/06 11:56:13;;;;;;;6.13;5.60;;;6.30;99.90;;;;;;5072950;28;20172;-60
2020/12/06 11:58:40;;;;;;;6.03;5.53;;;6.30;99.90;;;;;;5072024;28;20238;-60
2020/12/06 12:01:07;;;;;;;5.43;5.03;;;6.20;99.90;;;;;;5072558;28;20406;-59
2020/12/06 12:03:33;;;;;;;5.30;5.00;;;6.20;99.90;;;;;;5072143;28;20450;-57
2020/12/06 12:05:58;;;;;;;6.27;5.73;;;6.10;99.90;;;;;;5072483;28;20919;-58
2020/12/06 12:08:25;;;;;;;6.30;5.80;;;6.10;99.90;;;;;;5072029;28;20228;-58
2020/12/06 12:10:50;;;;;;;6.53;5.93;;;6.20;99.90;;;;;;5072429;28;20992;-58
2020/12/06 12:13:16;;;;;;;7.67;6.80;;;6.20;99.90;;;;;;5072116;28;20193;-60
2020/12/06 12:15:41;;;;;;;6.97;6.47;;;6.10;99.90;;;;;;5072241;28;20166;-60
2020/12/06 12:18:07;;;;;;;7.47;6.73;;;6.10;99.90;;;;;;5071980;28;20173;-58
2020/12/06 12:20:32;;;;;;;7.00;6.50;;;6.10;99.90;;;;;;5070259;28;20168;-58
2020/12/06 12:22:58;;;;;;;6.10;5.60;;;6.10;99.90;;;;;;5072151;28;20187;-58
2020/12/06 12:25:23;;;;;;;8.27;7.17;;;6.00;99.90;;;;;;5070569;28;20208;-61
2020/12/06 12:27:49;;;;;;;10.83;9.77;;;6.00;99.90;;;;;;5071891;28;20180;-59
2020/12/06 12:30:14;;;;;;;12.60;11.10;;;6.00;99.90;;;;;;5071984;28;20259;-58
2020/12/06 12:32:40;;;;;;;15.20;12.93;;;6.00;99.90;;;;;;5072076;28;20277;-60
2020/12/06 12:35:06;;;;;;;10.40;9.37;;;6.00;99.90;;;;;;5071866;28;20180;-60
2020/12/06 12:37:31;;;;;;;6.70;6.10;;;5.90;99.90;;;;;;5071808;28;20202;-60
2020/12/06 12:39:57;;;;;;;7.30;6.70;;;5.80;99.90;;;;;;5070617;28;20175;-60
2020/12/06 12:42:22;;;;;;;8.10;7.40;;;5.80;99.90;;;;;;5071888;28;20611;-59
2020/12/06 12:44:48;;;;;;;6.80;6.20;;;5.80;99.90;;;;;;5071809;28;20195;-60
2020/12/06 12:47:13;;;;;;;6.60;6.10;;;5.90;99.90;;;;;;5071522;28;20167;-61
2020/12/06 12:49:40;;;;;;;5.60;5.10;;;5.80;99.90;;;;;;5071937;28;20298;-61
2020/12/06 12:52:07;;;;;;;6.60;6.00;;;5.80;99.90;;;;;;5071671;28;20164;-59